createdAt,value
2019-02-05T00:02:39.904Z,71.67
2019-02-05T00:05:44.392Z,78.17
2019-02-05T00:08:48.463Z,56.77
2019-02-05T00:11:52.398Z,56.20
2019-02-05T00:14:56.767Z,55.97
2019-02-05T00:18:00.657Z,54.67
2019-02-05T00:21:04.641Z,56.30
2019-02-05T00:24:08.974Z,56.13
2019-02-05T00:27:12.899Z,57.63
2019-02-05T00:30:17.410Z,53.53
2019-02-05T00:33:21.982Z,59.37
2019-02-05T00:36:25.968Z,54.40
2019-02-05T00:39:29.907Z,55.93
2019-02-05T00:42:34.072Z,56.23
2019-02-05T00:45:38.027Z,52.43
2019-02-05T00:48:42.003Z,52.47
2019-02-05T00:51:45.969Z,52.03
2019-02-05T00:54:50.597Z,54.57
2019-02-05T00:57:54.611Z,57.03
2019-02-05T01:00:58.663Z,56.20
2019-02-05T01:04:03.136Z,56.23
2019-02-05T01:07:07.108Z,58.40
2019-02-05T01:10:11.994Z,52.60
2019-02-05T01:13:16.501Z,55.47
2019-02-05T01:16:20.458Z,51.83
2019-02-05T01:19:24.352Z,49.63
2019-02-05T01:22:28.369Z,48.80
2019-02-05T01:25:32.272Z,47.67
2019-02-05T01:28:36.305Z,41.47
2019-02-05T01:31:40.243Z,39.00
2019-02-05T01:34:44.228Z,35.97
2019-02-05T01:37:48.717Z,33.13
2019-02-05T01:40:52.718Z,32.00
2019-02-05T01:43:56.634Z,32.73
2019-02-05T01:47:00.623Z,29.90
2019-02-05T01:50:06.635Z,31.03
2019-02-05T01:53:10.609Z,28.40
2019-02-05T01:56:14.513Z,29.93
2019-02-05T01:59:18.476Z,29.13
2019-02-05T02:02:22.378Z,30.67
2019-02-05T02:05:26.355Z,29.63
2019-02-05T02:08:30.253Z,27.07
2019-02-05T02:11:34.235Z,26.43
2019-02-05T02:14:38.117Z,28.97
2019-02-05T02:17:42.127Z,29.43
2019-02-05T02:20:46.055Z,27.67
2019-02-05T02:23:50.054Z,26.40
2019-02-05T02:26:53.947Z,27.37
2019-02-05T02:29:57.940Z,28.37
2019-02-05T02:33:01.862Z,27.30
2019-02-05T02:36:05.832Z,27.37
2019-02-05T02:39:09.747Z,27.47
2019-02-05T02:42:13.736Z,29.97
2019-02-05T02:45:17.642Z,29.17
2019-02-05T02:48:21.599Z,26.33
2019-02-05T02:51:25.538Z,28.17
2019-02-05T02:54:29.927Z,25.30
2019-02-05T02:57:33.829Z,25.20
2019-02-05T03:00:37.801Z,29.93
2019-02-05T03:03:42.194Z,26.60
2019-02-05T03:06:46.210Z,28.43
2019-02-05T03:09:50.109Z,29.03
2019-02-05T03:12:54.507Z,29.13
2019-02-05T03:15:58.411Z,27.23
2019-02-05T03:19:02.409Z,28.13
2019-02-05T03:22:06.299Z,28.47
2019-02-05T03:25:13.091Z,30.53
2019-02-05T03:28:16.968Z,29.63
2019-02-05T03:31:20.940Z,31.63
2019-02-05T03:34:24.859Z,32.10
2019-02-05T03:37:28.686Z,30.67
2019-02-05T03:40:58.311Z,29.57
2019-02-05T03:44:02.143Z,31.97
2019-02-05T03:47:05.821Z,33.20
2019-02-05T03:50:09.954Z,33.80
2019-02-05T03:53:22.432Z,32.17
2019-02-05T03:56:35.024Z,32.53
2019-02-05T03:59:58.191Z,33.33
2019-02-05T04:03:40.021Z,34.53
2019-02-05T04:06:52.500Z,34.93
2019-02-05T04:10:32.506Z,34.37
2019-02-05T04:13:45.312Z,34.53
2019-02-05T04:17:14.784Z,34.90
2019-02-05T04:20:40.752Z,30.50
2019-02-05T04:23:53.252Z,36.10
2019-02-05T04:27:16.632Z,33.43
2019-02-05T04:30:40.920Z,30.23
2019-02-05T04:34:04.624Z,32.97
2019-02-05T04:37:26.728Z,32.33
2019-02-05T04:41:00.786Z,30.83
2019-02-05T04:44:35.041Z,33.13
2019-02-05T04:47:58.650Z,32.73
2019-02-05T04:51:32.078Z,33.00
2019-02-05T04:54:57.460Z,31.53
2019-02-05T04:58:16.700Z,31.23
2019-02-05T05:01:32.531Z,30.77
2019-02-05T05:04:45.181Z,30.60
2019-02-05T05:07:51.964Z,31.50
2019-02-05T05:10:55.664Z,31.90
2019-02-05T05:13:59.341Z,29.30
2019-02-05T05:17:03.071Z,31.23
2019-02-05T05:20:09.520Z,29.87
2019-02-05T05:23:13.236Z,31.83
2019-02-05T05:26:16.883Z,29.20
2019-02-05T05:29:20.612Z,31.20
2019-02-05T05:32:24.263Z,31.47
2019-02-05T05:35:40.071Z,34.20
2019-02-05T05:38:33.325Z,28.03
2019-02-05T05:41:37.126Z,30.77
2019-02-05T05:44:40.850Z,28.37
2019-02-05T05:47:44.680Z,33.60
2019-02-05T05:50:48.380Z,29.40
2019-02-05T05:53:52.118Z,30.63
2019-02-05T05:56:56.070Z,31.23
2019-02-05T05:59:59.817Z,29.73
2019-02-05T06:03:03.961Z,31.67
2019-02-05T06:06:08.067Z,28.13
2019-02-05T06:09:11.742Z,28.23
2019-02-05T06:12:15.571Z,25.50
2019-02-05T06:15:19.265Z,28.10
2019-02-05T06:18:23.006Z,25.13
2019-02-05T06:21:26.676Z,27.33
2019-02-05T06:24:30.403Z,24.70
2019-02-05T06:27:34.110Z,25.60
2019-02-05T06:30:37.800Z,26.27
2019-02-05T06:33:41.466Z,24.67
2019-02-05T06:36:45.252Z,24.00
2019-02-05T06:39:48.881Z,27.67
2019-02-05T06:42:52.613Z,29.07
2019-02-05T06:45:56.239Z,30.67
2019-02-05T06:48:59.991Z,31.00
2019-02-05T06:52:03.658Z,29.70
2019-02-05T06:55:10.316Z,28.00
2019-02-05T06:58:14.070Z,27.60
2019-02-05T07:01:17.792Z,25.77
2019-02-05T07:04:21.451Z,24.23
2019-02-05T07:07:25.181Z,25.77
2019-02-05T07:10:28.940Z,24.83
2019-02-05T07:13:32.655Z,25.43
2019-02-05T07:16:36.931Z,24.27
2019-02-05T07:19:40.724Z,27.50
2019-02-05T07:22:44.391Z,30.70
2019-02-05T07:25:48.540Z,32.17
2019-02-05T07:28:58.434Z,37.30
2019-02-05T07:31:57.601Z,33.60
2019-02-05T07:35:01.607Z,36.97
2019-02-05T07:38:05.401Z,39.60
2019-02-05T07:41:09.109Z,40.33
2019-02-05T07:44:12.858Z,39.93
2019-02-05T07:47:16.592Z,47.23
2019-02-05T07:50:25.782Z,48.97
2019-02-05T07:53:29.476Z,48.50
2019-02-05T07:56:33.173Z,48.97
2019-02-05T07:59:36.868Z,51.00
2019-02-05T08:02:40.619Z,45.10
2019-02-05T08:05:44.288Z,32.43
2019-02-05T08:08:48.342Z,39.80
2019-02-05T08:11:52.096Z,28.60
2019-02-05T08:14:55.841Z,35.03
2019-02-05T08:17:59.521Z,43.23
2019-02-05T08:21:03.277Z,43.47
2019-02-05T08:24:06.914Z,38.43
2019-02-05T08:27:10.625Z,37.33
2019-02-05T08:30:25.868Z,34.53
2019-02-05T08:33:29.507Z,35.07
2019-02-05T08:36:33.225Z,30.67
2019-02-05T08:39:36.876Z,29.90
2019-02-05T08:42:40.586Z,27.23
2019-02-05T08:45:55.973Z,24.03
2019-02-05T08:48:49.654Z,21.97
2019-02-05T08:51:53.306Z,21.80
2019-02-05T08:54:56.985Z,22.17
2019-02-05T08:58:06.040Z,23.10
2019-02-05T09:01:10.057Z,23.77
2019-02-05T09:04:13.671Z,22.93
2019-02-05T09:07:17.467Z,23.10
2019-02-05T09:10:24.181Z,23.93
2019-02-05T09:13:28.061Z,22.13
2019-02-05T09:16:31.753Z,32.77
2019-02-05T09:19:35.644Z,24.53
2019-02-05T09:22:39.300Z,22.37
2019-02-05T09:25:43.046Z,32.57
2019-02-05T09:28:48.290Z,31.20
2019-02-05T09:31:52.086Z,29.50
2019-02-05T09:34:55.762Z,24.03
2019-02-05T09:37:59.491Z,23.30
2019-02-05T09:41:03.188Z,26.10
2019-02-05T09:44:07.035Z,26.23
2019-02-05T09:47:10.681Z,24.73
2019-02-05T09:50:15.670Z,26.87
2019-02-05T09:53:19.362Z,28.80
2019-02-05T09:56:23.153Z,23.70
2019-02-05T09:59:26.825Z,30.13
2019-02-05T10:02:30.539Z,27.10
2019-02-05T10:05:35.111Z,23.00
2019-02-05T10:08:38.863Z,26.07
2019-02-05T10:11:42.518Z,27.33
2019-02-05T10:14:46.266Z,27.27
2019-02-05T10:17:49.927Z,25.37
2019-02-05T10:20:54.096Z,25.37
2019-02-05T10:23:57.741Z,24.80
2019-02-05T10:27:01.488Z,24.00
2019-02-05T10:30:14.076Z,23.80
2019-02-05T10:33:17.812Z,25.07
2019-02-05T10:36:21.489Z,26.13
2019-02-05T10:39:25.404Z,25.27
2019-02-05T10:42:29.126Z,24.27
2019-02-05T10:45:32.901Z,28.30
2019-02-05T10:48:36.934Z,29.67
2019-02-05T10:51:40.727Z,25.27
2019-02-05T10:54:44.388Z,24.10
2019-02-05T10:57:49.355Z,23.67
2019-02-05T11:00:53.007Z,24.57
2019-02-05T11:03:56.751Z,26.40
2019-02-05T11:07:00.464Z,29.70
2019-02-05T11:10:07.191Z,25.83
2019-02-05T11:13:10.950Z,27.20
2019-02-05T11:16:14.731Z,24.00
2019-02-05T11:19:18.384Z,24.63
2019-02-05T11:22:22.126Z,24.97
2019-02-05T11:25:25.791Z,17.90
2019-02-05T11:28:29.566Z,22.07
2019-02-05T11:31:33.192Z,21.00
2019-02-05T11:34:36.929Z,24.10
2019-02-05T11:37:40.567Z,22.10
2019-02-05T11:40:44.640Z,22.17
2019-02-05T11:43:48.268Z,17.07
2019-02-05T11:46:52.122Z,19.23
2019-02-05T11:49:55.906Z,22.73
2019-02-05T11:52:59.631Z,23.73
2019-02-05T11:56:03.328Z,23.20
2019-02-05T11:59:07.086Z,22.87
2019-02-05T12:02:10.748Z,26.10
2019-02-05T12:05:14.498Z,24.07
2019-02-05T12:08:18.764Z,24.90
2019-02-05T12:11:22.687Z,22.80
2019-02-05T12:14:26.336Z,23.60
2019-02-05T12:17:30.064Z,22.37
2019-02-05T12:20:33.721Z,19.27
2019-02-05T12:23:37.862Z,18.00
2019-02-05T12:26:41.517Z,21.47
2019-02-05T12:29:45.286Z,24.77
2019-02-05T12:32:48.940Z,25.00
2019-02-05T12:35:52.666Z,25.53
2019-02-05T12:38:56.363Z,24.63
2019-02-05T12:42:00.115Z,25.63
2019-02-05T12:45:05.339Z,24.80
2019-02-05T12:48:09.177Z,23.73
2019-02-05T12:51:12.843Z,24.67
2019-02-05T12:54:16.580Z,26.80
2019-02-05T12:57:20.261Z,28.07
2019-02-05T13:00:35.891Z,27.93
2019-02-05T13:03:39.565Z,26.00
2019-02-05T13:06:43.344Z,26.90
2019-02-05T13:09:48.170Z,30.73
2019-02-05T13:12:52.386Z,34.47
2019-02-05T13:15:56.036Z,38.33
2019-02-05T13:18:59.982Z,37.67
2019-02-05T13:22:03.666Z,40.43
2019-02-05T13:25:19.149Z,41.50
2019-02-05T13:28:22.813Z,41.30
2019-02-05T13:31:26.627Z,39.00
2019-02-05T13:34:30.320Z,37.63
2019-02-05T13:37:34.140Z,37.63
2019-02-05T13:40:37.793Z,37.27
2019-02-05T13:43:41.513Z,38.13
2019-02-05T13:46:45.189Z,35.00
2019-02-05T13:49:48.971Z,34.63
2019-02-05T13:52:52.628Z,33.93
2019-02-05T13:55:57.674Z,34.07
2019-02-05T13:59:01.373Z,34.80
2019-02-05T14:02:05.500Z,34.90
2019-02-05T14:05:10.839Z,35.60
2019-02-05T14:08:14.611Z,37.90
2019-02-05T14:11:18.269Z,37.43
2019-02-05T14:14:22.024Z,39.80
2019-02-05T14:17:25.689Z,41.10
2019-02-05T14:20:29.420Z,41.40
2019-02-05T14:23:33.078Z,43.87
2019-02-05T14:26:36.831Z,44.87
2019-02-05T14:29:40.534Z,45.37
2019-02-05T14:32:44.317Z,49.30
2019-02-05T14:35:48.092Z,49.00
2019-02-05T14:38:51.907Z,52.23
2019-02-05T14:41:55.546Z,52.07
2019-02-05T14:44:59.277Z,57.63
2019-02-05T14:48:02.937Z,52.17
2019-02-05T14:51:07.225Z,56.23
2019-02-05T14:54:10.914Z,57.03
2019-02-05T14:57:14.638Z,62.53
2019-02-05T15:00:27.433Z,65.87
2019-02-05T15:03:31.625Z,74.47
2019-02-05T15:06:35.293Z,68.80
2019-02-05T15:09:38.999Z,71.80
2019-02-05T15:12:42.808Z,70.13
2019-02-05T15:15:46.472Z,68.80
2019-02-05T15:18:50.185Z,69.57
2019-02-05T15:21:54.093Z,68.13
2019-02-05T15:24:57.898Z,67.33
2019-02-05T15:28:01.589Z,66.97
2019-02-05T15:31:05.737Z,64.10
2019-02-05T15:34:11.003Z,63.57
2019-02-05T15:37:14.764Z,64.10
2019-02-05T15:40:18.483Z,66.30
2019-02-05T15:43:22.242Z,68.70
2019-02-05T15:46:25.993Z,67.67
2019-02-05T15:49:29.713Z,71.00
2019-02-05T15:52:33.479Z,71.17
2019-02-05T15:55:37.160Z,72.77
2019-02-05T15:58:40.909Z,75.37
2019-02-05T16:01:44.585Z,82.43
2019-02-05T16:04:48.275Z,134.40
2019-02-05T16:07:51.941Z,101.67
2019-02-05T16:10:55.626Z,80.47
2019-02-05T16:13:59.383Z,77.37
2019-02-05T16:17:03.444Z,73.30
2019-02-05T16:20:12.241Z,75.43
2019-02-05T16:23:15.966Z,73.70
2019-02-05T16:26:19.731Z,64.93
2019-02-05T16:29:23.393Z,72.57
2019-02-05T16:32:27.146Z,70.23
2019-02-05T16:35:30.813Z,74.07
2019-02-05T16:38:34.553Z,66.63
2019-02-05T16:41:38.212Z,63.43
2019-02-05T16:44:41.918Z,65.37
2019-02-05T16:47:45.599Z,67.93
2019-02-05T16:50:49.914Z,69.33
2019-02-05T16:53:53.633Z,65.77
2019-02-05T16:56:57.338Z,63.30
2019-02-05T17:00:00.999Z,62.97
2019-02-05T17:03:05.140Z,65.20
2019-02-05T17:06:08.818Z,66.13
2019-02-05T17:09:14.519Z,73.80
2019-02-05T17:12:18.161Z,74.00
2019-02-05T17:15:21.909Z,74.40
2019-02-05T17:18:25.748Z,69.60
2019-02-05T17:21:29.478Z,70.67
2019-02-05T17:24:33.193Z,68.77
2019-02-05T17:27:36.891Z,71.37
2019-02-05T17:30:41.383Z,66.80
2019-02-05T17:33:45.034Z,64.17
2019-02-05T17:36:48.718Z,66.33
2019-02-05T17:39:52.414Z,63.73
2019-02-05T17:42:56.335Z,65.70
2019-02-05T17:46:00.066Z,61.87
2019-02-05T17:49:03.911Z,65.23
2019-02-05T17:52:10.414Z,65.97
2019-02-05T17:55:16.292Z,66.23
2019-02-05T17:58:20.454Z,63.77
2019-02-05T18:01:24.114Z,61.13
2019-02-05T18:04:27.812Z,64.93
2019-02-05T18:07:31.549Z,68.60
2019-02-05T18:10:35.198Z,71.03
2019-02-05T18:13:39.007Z,71.03
2019-02-05T18:16:45.242Z,78.40
2019-02-05T18:19:48.149Z,74.43
2019-02-05T18:22:51.943Z,75.77
2019-02-05T18:25:55.641Z,75.10
2019-02-05T18:28:59.349Z,70.87
2019-02-05T18:32:03.005Z,70.43
2019-02-05T18:35:09.375Z,79.20
2019-02-05T18:38:15.544Z,77.33
2019-02-05T18:41:19.249Z,77.30
2019-02-05T18:44:22.925Z,72.10
2019-02-05T18:47:26.772Z,76.60
2019-02-05T18:50:30.493Z,84.23
2019-02-05T18:53:34.139Z,78.67
2019-02-05T18:56:37.920Z,72.57
2019-02-05T18:59:41.614Z,76.30
2019-02-05T19:02:46.533Z,83.30
2019-02-05T19:05:51.948Z,91.47
2019-02-05T19:08:56.143Z,96.60
2019-02-05T19:12:04.175Z,96.13
2019-02-05T19:15:09.000Z,99.47
2019-02-05T19:18:13.919Z,103.23
2019-02-05T19:21:17.888Z,98.50
2019-02-05T19:24:32.294Z,107.37
2019-02-05T19:27:37.611Z,91.73
2019-02-05T19:30:42.895Z,92.30
2019-02-05T19:33:46.763Z,90.80
2019-02-05T19:36:50.496Z,88.87
2019-02-05T19:39:54.398Z,75.93
2019-02-05T19:42:58.251Z,75.17
2019-02-05T19:46:06.317Z,58.10
2019-02-05T19:49:21.554Z,53.90
2019-02-05T19:52:17.184Z,56.13
2019-02-05T19:55:21.068Z,54.77
2019-02-05T19:58:25.140Z,54.63
2019-02-05T20:01:29.424Z,50.80
2019-02-05T20:04:33.259Z,53.17
2019-02-05T20:07:37.157Z,50.23
2019-02-05T20:10:41.313Z,49.97
2019-02-05T20:13:45.040Z,53.33
2019-02-05T20:16:48.768Z,53.63
2019-02-05T20:19:52.458Z,50.47
2019-02-05T20:22:56.203Z,50.90
2019-02-05T20:25:59.962Z,55.60
2019-02-05T20:29:03.713Z,54.67
2019-02-05T20:32:07.533Z,50.17
2019-02-05T20:35:11.252Z,48.63
2019-02-05T20:38:16.420Z,49.63
2019-02-05T20:41:24.126Z,51.40
2019-02-05T20:44:27.497Z,50.83
2019-02-05T20:47:32.753Z,51.27
2019-02-05T20:50:36.451Z,48.63
2019-02-05T20:53:40.169Z,52.90
2019-02-05T20:56:43.924Z,51.53
2019-02-05T20:59:47.737Z,48.63
2019-02-05T21:02:51.400Z,45.03
2019-02-05T21:05:55.133Z,46.20
2019-02-05T21:09:00.168Z,42.07
2019-02-05T21:12:04.059Z,42.33
2019-02-05T21:15:10.992Z,40.67
2019-02-05T21:18:17.391Z,41.57
2019-02-05T21:21:20.079Z,43.70
2019-02-05T21:24:23.768Z,41.37
2019-02-05T21:27:27.433Z,42.53
2019-02-05T21:30:31.568Z,42.60
2019-02-05T21:33:35.294Z,43.10
2019-02-05T21:36:39.114Z,43.23
2019-02-05T21:39:43.199Z,43.10
2019-02-05T21:42:47.954Z,41.20
2019-02-05T21:45:51.689Z,42.90
2019-02-05T21:48:55.844Z,39.13
2019-02-05T21:51:59.499Z,41.57
2019-02-05T21:55:03.231Z,46.57
2019-02-05T21:58:06.896Z,45.13
2019-02-05T22:01:10.604Z,42.43
2019-02-05T22:04:14.303Z,45.60
2019-02-05T22:07:18.119Z,47.30
2019-02-05T22:10:21.913Z,44.73
2019-02-05T22:13:25.694Z,46.97
2019-02-05T22:16:29.385Z,51.63
2019-02-05T22:19:33.037Z,54.07
2019-02-05T22:22:36.755Z,54.50
2019-02-05T22:25:40.835Z,53.43
2019-02-05T22:28:44.532Z,54.60
2019-02-05T22:31:48.202Z,53.63
2019-02-05T22:34:52.291Z,56.10
2019-02-05T22:37:55.947Z,55.57
2019-02-05T22:40:59.652Z,56.60
2019-02-05T22:44:03.414Z,60.20
2019-02-05T22:47:07.086Z,54.07
2019-02-05T22:50:13.519Z,59.40
2019-02-05T22:53:17.231Z,59.27
2019-02-05T22:56:20.941Z,57.40
2019-02-05T22:59:25.251Z,60.43
2019-02-05T23:02:28.929Z,60.37
2019-02-05T23:05:51.030Z,61.47
2019-02-05T23:08:57.064Z,62.63
2019-02-05T23:12:18.673Z,57.43
2019-02-05T23:15:22.331Z,63.70
2019-02-05T23:18:27.604Z,64.40
2019-02-05T23:21:31.298Z,62.70
2019-02-05T23:24:35.475Z,65.07
2019-02-05T23:27:39.216Z,64.60
2019-02-05T23:30:42.911Z,64.83
2019-02-05T23:33:46.916Z,62.53
2019-02-05T23:36:50.571Z,64.23
2019-02-05T23:39:54.287Z,63.60
2019-02-05T23:42:58.134Z,61.83
2019-02-05T23:46:01.944Z,66.13
2019-02-05T23:49:37.762Z,62.50
2019-02-05T23:52:41.191Z,63.13
2019-02-05T23:55:44.957Z,66.13
2019-02-05T23:58:48.649Z,63.57
